Bolivar Point — WDD5224 — position and weather

sailwx.info

Track history (hours):
 
Tides and Currents Weather Stations Pressure Air Temp Water Temp Dewpoint Dewpoint Depression Visibility Wind Speed Wind Dir Waves Ship Positions

Bolivar Point

Owner: Higman Barge Lines, Inc., Orange, TX. More information available from US FCC via Universal Licensing System and Coast Guard Vessel Documentation Center.

Last reported at 2017-Nov-15 21:04 UTC. Time now 2017-Nov-21 23:15 UTC.
Position N 29°34' W 090°23'.

Length 25 m; draft 3 m.

Type: Towing. MMSI: 367155310.

Date/timePositionNaut miles runAvg speedWind from/ knotsBaromVisibWave heightAir tempDewpointWater temp
2017-Nov-15 21:04N 29°34' W 090°23'2 4.0
2017-Nov-15 20:38N 29°33' W 090°25'1 5.5
2017-Nov-15 20:30N 29°33' W 090°26'3 5.5
2017-Nov-15 20:00N 29°34' W 090°29'3 5.4
2017-Nov-15 19:30N 29°34' W 090°32'2 3.8
2017-Nov-15 19:00N 29°34' W 090°34'2 4.1
2017-Nov-15 18:30N 29°35' W 090°37'1 2.6
2017-Nov-15 18:01N 29°35' W 090°38'2 4.6
2017-Nov-15 17:30N 29°36' W 090°40'2 3.7
2017-Nov-15 17:00N 29°37' W 090°42'2 4.1
2017-Nov-15 16:31N 29°35' W 090°43'2 3.8
2017-Nov-15 16:00N 29°34' W 090°45'3 5.3
2017-Nov-15 15:31N 29°32' W 090°47'3 6.0
2017-Nov-15 15:00N 29°32' W 090°51'3 5.8
2017-Nov-15 14:30N 29°33' W 090°54'4 5.7
2017-Nov-15 13:45N 29°36' W 090°58'1 5.7
2017-Nov-15 13:30N 29°37' W 090°59'  
2017-Nov-11 04:12N 29°37' W 090°59'1 6.6
2017-Nov-11 04:00N 29°36' W 090°58'3 6.7
2017-Nov-11 03:29N 29°34' W 090°55'4 7.8
2017-Nov-11 03:00N 29°32' W 090°51'4 7.6
2017-Nov-11 02:30N 29°32' W 090°47'3 5.6
2017-Nov-11 02:00N 29°34' W 090°44'2 4.3
2017-Nov-11 01:31N 29°35' W 090°43'2 3.4
2017-Nov-11 01:00N 29°37' W 090°42'3 6.2
2017-Nov-11 00:30N 29°35' W 090°39'3 5.7
2017-Nov-11 00:00N 29°35' W 090°35'0 0.0
2017-Nov-10 23:30N 29°35' W 090°35'0 0.0
2017-Nov-10 23:00N 29°35' W 090°35'0 0.0
2017-Nov-10 22:30N 29°35' W 090°35'3 5.3
2017-Nov-10 22:00N 29°34' W 090°33'4 6.9
2017-Nov-10 21:30N 29°34' W 090°29'  
Track history (hours):
 
Tides and Currents Weather Stations Pressure Air Temp Water Temp Dewpoint Dewpoint Depression Visibility Wind Speed Wind Dir Waves Ship Positions

Bolivar Point

Owner: Higman Barge Lines, Inc., Orange, TX. More information available from US FCC via Universal Licensing System and Coast Guard Vessel Documentation Center.

Last reported at 2017-Nov-15 21:04 UTC. Time now 2017-Nov-21 23:15 UTC.
Position N 29°34' W 090°23'.

Length 25 m; draft 3 m.

Type: Towing. MMSI: 367155310.

Date/timePositionNaut miles runAvg speedWind from/ knotsBaromVisibWave heightAir tempDewpointWater temp
2017-Nov-15 21:04N 29°34' W 090°23'2 4.0
2017-Nov-15 20:38N 29°33' W 090°25'1 5.5
2017-Nov-15 20:30N 29°33' W 090°26'3 5.5
2017-Nov-15 20:00N 29°34' W 090°29'3 5.4
2017-Nov-15 19:30N 29°34' W 090°32'2 3.8
2017-Nov-15 19:00N 29°34' W 090°34'2 4.1
2017-Nov-15 18:30N 29°35' W 090°37'1 2.6
2017-Nov-15 18:01N 29°35' W 090°38'2 4.6
2017-Nov-15 17:30N 29°36' W 090°40'2 3.7
2017-Nov-15 17:00N 29°37' W 090°42'2 4.1
2017-Nov-15 16:31N 29°35' W 090°43'2 3.8
2017-Nov-15 16:00N 29°34' W 090°45'3 5.3
2017-Nov-15 15:31N 29°32' W 090°47'3 6.0
2017-Nov-15 15:00N 29°32' W 090°51'3 5.8
2017-Nov-15 14:30N 29°33' W 090°54'4 5.7
2017-Nov-15 13:45N 29°36' W 090°58'1 5.7
2017-Nov-15 13:30N 29°37' W 090°59'  
2017-Nov-11 04:12N 29°37' W 090°59'1 6.6
2017-Nov-11 04:00N 29°36' W 090°58'3 6.7
2017-Nov-11 03:29N 29°34' W 090°55'4 7.8
2017-Nov-11 03:00N 29°32' W 090°51'4 7.6
2017-Nov-11 02:30N 29°32' W 090°47'3 5.6
2017-Nov-11 02:00N 29°34' W 090°44'2 4.3
2017-Nov-11 01:31N 29°35' W 090°43'2 3.4
2017-Nov-11 01:00N 29°37' W 090°42'3 6.2
2017-Nov-11 00:30N 29°35' W 090°39'3 5.7
2017-Nov-11 00:00N 29°35' W 090°35'0 0.0
2017-Nov-10 23:30N 29°35' W 090°35'0 0.0
2017-Nov-10 23:00N 29°35' W 090°35'0 0.0
2017-Nov-10 22:30N 29°35' W 090°35'3 5.3
2017-Nov-10 22:00N 29°34' W 090°33'4 6.9
2017-Nov-10 21:30N 29°34' W 090°29'  

Dump ship's entire track history